Huvudsida
METAR-TAF:

METAR-TAF

Flygplatser :

Lossiemouth flygplats

Lossiemouth, Skottland

latitud: 57-43N, longitud: 003-19W, höjd: 13 m

Aktuellt väderrapport

Denna rapport gjordes för 56 minuter sedan, klockan 18:50 UTC
Vind 9 kt från väst/sydväst
Temperatur 19°C
Fuktighet 68%
Tryck 1023 hPa
Sikt 10 km eller mer
Inga moln under 1 500 m eller inga cumulonimbus

METAR: EGQS 291850Z 24009KT CAVOK 19/13 Q1023 RMK BLU

Tid: 20:46 (19:46 UTC)

Väderprognos

Denna rapport gjordes för 3 timmar och 16 minuter sedan, klockan 16:30 UTC
Prognos gäller från 29 kl. 18 UTC till 30 kl. 12 UTC
Vind 10 kt från ost
Sikt 10 km eller mer
Få moln på en höjd av 4000 ft

TAF: EGQS 291630Z 2918/3012 10010KT 9999 FEW040

Aktuella väderrapporter och prognoser från 4000 flygplatser (METAR- och TAF-rapporter).

De tillgängliga stationerna syns som gula och röda prickar på kartan.

För musen över prickarna för att se namnen på stationerna.

Klicka sedan för att få väderrapporter och prognoser.

För att ändra kartan: Klicka på de gröna knapparna med ett svart kors på för att zooma in; den gröna knappen med ett streck på för att zooma ut; eller på de gröna pilarna för angränsande kartor.


METAR-TAF: